Time;durP1;ratioP1;P1;durP2;ratioP2;P2;SDS_P1;SDS_P2;PMS_P1;PMS_P2;Temp;Humidity;BMP_temperature;BMP_pressure;BME280_temperature;BME280_humidity;BME280_pressure;Samples;Min_cycle;Max_cycle;Signal;HPM_P1;HPM_P2
2024/01/04 00:01:26;;;;;;;36.30;17.23;;;;;;;-142.57;100.00;55923.28;4952967;28;20728;-84
2024/01/04 00:03:51;;;;;;;33.83;16.75;;;;;;;-142.57;100.00;55975.84;5049228;28;20043;-87
2024/01/04 00:06:19;;;;;;;30.80;17.25;;;;;;;-142.57;100.00;55963.72;5046860;28;20520;-86
2024/01/04 00:08:48;;;;;;;30.65;16.33;;;;;;;-142.57;100.00;55987.94;5052765;28;20394;-85
2024/01/04 00:11:14;;;;;;;29.73;15.98;;;;;;;-142.57;100.00;56016.25;5040031;28;20447;-84
2024/01/04 00:13:39;;;;;;;36.22;16.10;;;;;;;-142.57;100.00;56024.31;5040811;28;20167;-79
2024/01/04 00:16:10;;;;;;;29.80;16.63;;;;;;;-142.57;100.00;56030.38;5048166;28;20025;-85
2024/01/04 00:18:36;;;;;;;39.92;17.42;;;;;;;-142.57;100.00;56004.13;5054946;28;20041;-84
2024/01/04 00:21:02;;;;;;;33.33;17.48;;;;;;;-142.57;100.00;56040.50;5048977;28;20040;-85
2024/01/04 00:23:34;;;;;;;42.70;18.95;;;;;;;-142.57;100.00;56032.41;5055762;28;20029;-85
2024/01/04 00:26:00;;;;;;;32.85;16.90;;;;;;;-142.57;100.00;56012.19;5050243;28;20140;-79
2024/01/04 00:28:26;;;;;;;34.67;17.80;;;;;;;-142.57;100.00;56020.28;5048567;28;20029;-85
2024/01/04 00:30:51;;;;;;;44.38;18.75;;;;;;;-142.57;100.00;56004.13;5046826;28;20040;-87
2024/01/04 00:33:37;;;;;;;43.67;20.60;;;;;;;-142.57;100.00;55979.88;5045610;28;20059;-84
2024/01/04 00:36:03;;;;;;;32.30;17.63;;;;;;;-142.57;100.00;56028.38;5050878;28;20466;-87
2024/01/04 00:38:28;;;;;;;50.72;20.75;;;;;;;-142.57;100.00;55992.00;5009957;28;20061;-79
2024/01/04 00:40:53;;;;;;;37.10;19.58;;;;;;;-142.57;100.00;56004.13;4952415;28;20072;-81
2024/01/04 00:43:19;;;;;;;37.38;19.95;;;;;;;-142.57;100.00;56012.19;4939647;28;20406;-81
2024/01/04 00:45:45;;;;;;;43.80;20.42;;;;;;;-142.57;100.00;55983.91;4963797;28;20049;-80
2024/01/04 00:48:10;;;;;;;30.35;18.63;;;;;;;-142.57;100.00;55983.91;4958452;28;20021;-84
2024/01/04 00:50:36;;;;;;;45.13;20.20;;;;;;;-142.57;100.00;56020.28;4939200;28;20116;-86
2024/01/04 00:53:02;;;;;;;44.15;20.77;;;;;;;-142.57;100.00;55992.00;4933579;28;20037;-82
2024/01/04 00:55:27;;;;;;;40.95;19.70;;;;;;;-142.57;100.00;55953.59;4937367;28;20040;-83
2024/01/04 00:57:54;;;;;;;41.20;20.45;;;;;;;-142.57;100.00;55965.72;4956349;28;20029;-79
2024/01/04 01:00:19;;;;;;;38.35;19.88;;;;;;;-142.57;100.00;55971.78;4950576;28;20052;-80
2024/01/04 01:02:45;;;;;;;36.08;21.13;;;;;;;-142.57;100.00;56002.09;4960948;28;20037;-79
2024/01/04 01:05:11;;;;;;;48.45;21.15;;;;;;;-142.57;100.00;55975.84;4954802;28;21488;-78
2024/01/04 01:07:37;;;;;;;37.92;21.05;;;;;;;-142.57;100.00;56002.09;4974909;28;21984;-80
2024/01/04 01:10:03;;;;;;;37.08;20.13;;;;;;;-142.57;100.00;55985.94;4954491;28;20032;-84
2024/01/04 01:12:28;;;;;;;44.10;20.65;;;;;;;-142.57;100.00;56008.16;4971303;28;20120;-84
2024/01/04 01:14:54;;;;;;;33.88;20.10;;;;;;;-142.57;100.00;55965.72;5041146;28;20025;-83
2024/01/04 01:17:19;;;;;;;34.85;19.17;;;;;;;-142.57;100.00;55992.00;5046101;28;20144;-80
2024/01/04 01:19:45;;;;;;;37.22;21.00;;;;;;;-142.57;100.00;55983.91;5025625;28;20033;-80
2024/01/04 01:22:11;;;;;;;38.65;19.33;;;;;;;-142.57;100.00;55975.84;4935025;28;20033;-83
2024/01/04 01:24:37;;;;;;;40.75;20.92;;;;;;;-142.57;100.00;55951.59;4954646;28;20068;-85
2024/01/04 01:27:02;;;;;;;42.28;20.48;;;;;;;-142.57;100.00;55923.28;4952861;28;21827;-84
2024/01/04 01:29:28;;;;;;;49.53;22.13;;;;;;;-142.57;100.00;55907.13;4988703;28;20025;-83
2024/01/04 01:31:54;;;;;;;42.20;20.45;;;;;;;-142.57;100.00;55955.63;5048243;28;20044;-82
2024/01/04 01:34:19;;;;;;;52.53;23.05;;;;;;;-142.57;100.00;55973.81;5047071;28;20032;-85
2024/01/04 01:36:46;;;;;;;37.05;21.10;;;;;;;-142.57;100.00;55983.91;4992405;28;20033;-81
2024/01/04 01:39:11;;;;;;;46.42;22.40;;;;;;;-142.57;100.00;55939.47;4954388;28;20040;-82
2024/01/04 01:41:37;;;;;;;48.92;23.63;;;;;;;-142.57;100.00;55945.53;5019322;28;20041;-85
2024/01/04 01:44:02;;;;;;;46.72;23.98;;;;;;;-142.57;100.00;55983.91;5039743;28;20037;-82
2024/01/04 01:46:29;;;;;;;42.38;23.88;;;;;;;-142.57;100.00;55959.66;4955750;28;20032;-83
2024/01/04 01:48:55;;;;;;;53.60;26.05;;;;;;;-142.57;100.00;55947.53;4954205;28;20095;-79
2024/01/04 01:51:20;;;;;;;56.90;26.05;;;;;;;-142.57;100.00;55979.88;4953886;28;20350;-83
2024/01/04 01:53:46;;;;;;;49.03;24.88;;;;;;;-142.57;100.00;55959.66;4936801;28;20083;-80
2024/01/04 01:56:13;;;;;;;48.58;25.70;;;;;;;-142.57;100.00;55987.94;4950972;28;20052;-80
2024/01/04 01:58:38;;;;;;;53.47;25.48;;;;;;;-142.57;100.00;56018.25;4935497;28;20037;-85
2024/01/04 02:01:04;;;;;;;57.08;26.40;;;;;;;-142.57;100.00;55994.00;4934704;28;20051;-84
2024/01/04 02:03:30;;;;;;;58.20;27.58;;;;;;;-142.57;100.00;55979.88;4955678;28;21411;-85
2024/01/04 02:05:56;;;;;;;48.20;26.30;;;;;;;-142.57;100.00;56008.16;4957184;28;22031;-80
2024/01/04 02:08:21;;;;;;;56.60;27.13;;;;;;;-142.57;100.00;56008.16;4995567;28;20033;-88
2024/01/04 02:10:47;;;;;;;55.05;26.92;;;;;;;-142.57;100.00;56000.06;5022128;28;20243;-79
2024/01/04 02:13:12;;;;;;;54.35;25.48;;;;;;;-142.57;100.00;55955.63;5025008;28;20036;-80
2024/01/04 02:15:38;;;;;;;47.08;24.75;;;;;;;-142.57;100.00;55975.84;4986616;28;21880;-83
2024/01/04 02:18:04;;;;;;;52.03;25.80;;;;;;;-142.57;100.00;55969.78;4934041;28;20029;-81
2024/01/04 02:20:29;;;;;;;50.33;25.33;;;;;;;-142.57;100.00;55973.81;4959328;28;20143;-80
2024/01/04 02:22:55;;;;;;;47.97;24.73;;;;;;;-142.57;100.00;55989.97;4937356;28;20060;-81
2024/01/04 02:25:21;;;;;;;52.58;25.52;;;;;;;-142.57;100.00;55943.50;5012483;28;20068;-81
2024/01/04 02:27:46;;;;;;;60.13;26.13;;;;;;;-142.57;100.00;55941.47;5040454;28;20069;-79
2024/01/04 02:30:12;;;;;;;50.15;26.85;;;;;;;-142.57;100.00;55945.53;4952606;28;20515;-80
2024/01/04 02:32:38;;;;;;;51.63;26.75;;;;;;;-142.57;100.00;55933.41;4956162;28;20374;-79
2024/01/04 02:35:04;;;;;;;51.33;25.13;;;;;;;-142.57;100.00;55935.41;4956679;28;20047;-80
2024/01/04 02:37:31;;;;;;;47.65;25.85;;;;;;;-142.57;100.00;55935.41;4936810;28;20033;-81
2024/01/04 02:39:56;;;;;;;49.90;25.27;;;;;;;-142.57;100.00;55923.28;5038059;28;20029;-81
2024/01/04 02:42:22;;;;;;;44.53;24.08;;;;;;;-142.57;100.00;55892.97;5014979;28;20735;-80
2024/01/04 02:44:48;;;;;;;49.55;26.25;;;;;;;-142.57;100.00;55923.28;5019450;28;20032;-81
2024/01/04 02:47:13;;;;;;;44.45;24.55;;;;;;;-142.57;100.00;55957.66;4957839;28;20124;-80
2024/01/04 02:49:39;;;;;;;43.05;22.58;;;;;;;-142.57;100.00;55971.78;4959761;28;20112;-81
2024/01/04 02:52:05;;;;;;;47.88;24.10;;;;;;;-142.57;100.00;56004.13;4966253;28;21733;-82
2024/01/04 02:54:31;;;;;;;48.92;24.88;;;;;;;-142.57;100.00;55935.41;4984448;28;20037;-81
2024/01/04 02:56:58;;;;;;;46.30;24.02;;;;;;;-142.57;100.00;55937.44;5028489;28;20402;-81
2024/01/04 02:59:24;;;;;;;42.30;23.15;;;;;;;-142.57;100.00;55955.63;5036132;28;20025;-80
2024/01/04 03:01:50;;;;;;;53.53;24.77;;;;;;;-142.57;100.00;55953.59;4941867;28;20135;-80
2024/01/04 03:04:15;;;;;;;47.75;24.27;;;;;;;-142.57;100.00;55909.16;4964787;28;20120;-79
2024/01/04 03:06:41;;;;;;;48.85;27.45;;;;;;;-142.57;100.00;55983.91;4943838;28;20041;-81
2024/01/04 03:09:07;;;;;;;46.20;26.52;;;;;;;-142.57;100.00;55975.84;4964750;28;21680;-81
2024/01/04 03:11:34;;;;;;;44.47;24.80;;;;;;;-142.57;100.00;55947.53;5053215;28;20140;-81
2024/01/04 03:13:59;;;;;;;46.10;25.55;;;;;;;-142.57;100.00;55969.78;5045957;28;20546;-82
2024/01/04 03:16:25;;;;;;;50.88;25.40;;;;;;;-142.57;100.00;55947.53;4970805;28;20032;-81
2024/01/04 03:18:50;;;;;;;56.95;25.58;;;;;;;-142.57;100.00;55973.81;4962391;28;20452;-81
2024/01/04 03:21:17;;;;;;;52.22;25.05;;;;;;;-142.57;100.00;56008.16;4960369;28;20087;-80
2024/01/04 03:23:42;;;;;;;50.97;26.92;;;;;;;-142.57;100.00;55963.72;4959588;28;20032;-81
2024/01/04 03:26:08;;;;;;;48.90;26.55;;;;;;;-142.57;100.00;55933.41;5044819;28;20032;-80
2024/01/04 03:28:34;;;;;;;54.97;27.15;;;;;;;-142.57;100.00;55955.63;5032525;28;20033;-81
2024/01/04 03:30:59;;;;;;;52.17;24.75;;;;;;;-142.57;100.00;55987.94;5016993;28;20057;-78
2024/01/04 03:33:25;;;;;;;52.80;26.85;;;;;;;-142.57;100.00;55979.88;4955342;28;20037;-79
2024/01/04 03:35:51;;;;;;;53.50;27.02;;;;;;;-142.57;100.00;56014.22;4960348;28;20501;-81
2024/01/04 03:38:16;;;;;;;52.00;27.27;;;;;;;-142.57;100.00;55992.00;4965102;28;20048;-81
2024/01/04 03:40:42;;;;;;;50.80;26.13;;;;;;;-142.57;100.00;55971.78;5000169;28;20048;-81
2024/01/04 03:43:08;;;;;;;51.13;27.58;;;;;;;-142.57;100.00;56008.16;5031848;28;20025;-80
2024/01/04 03:45:33;;;;;;;47.90;25.92;;;;;;;-142.57;100.00;56056.66;5052544;28;20116;-81
2024/01/04 03:48:00;;;;;;;51.72;26.77;;;;;;;-142.57;100.00;55975.84;5001531;28;20116;-79
2024/01/04 03:50:25;;;;;;;49.78;26.98;;;;;;;-142.57;100.00;55979.88;4960389;28;20042;-81
2024/01/04 03:52:51;;;;;;;53.28;26.42;;;;;;;-142.57;100.00;55989.97;4959467;28;20527;-80
2024/01/04 03:55:16;;;;;;;50.70;27.15;;;;;;;-142.57;100.00;55915.22;4959626;28;20111;-80
2024/01/04 03:57:46;;;;;;;55.45;26.40;;;;;;;-142.57;100.00;55897.03;5016686;28;20037;-80
2024/01/04 04:00:12;;;;;;;47.20;25.23;;;;;;;-142.57;100.00;55876.81;4983396;28;20037;-80
2024/01/04 04:02:38;;;;;;;52.97;25.70;;;;;;;-142.57;100.00;55854.59;4961830;28;20037;-81
2024/01/04 04:05:05;;;;;;;53.40;25.17;;;;;;;-142.57;100.00;55836.41;4940040;28;20044;-80
2024/01/04 04:07:30;;;;;;;45.38;24.73;;;;;;;-142.57;100.00;55850.56;4939666;28;20170;-79
2024/01/04 04:09:57;;;;;;;49.90;25.92;;;;;;;-142.57;100.00;55842.47;5037208;28;20139;-80
2024/01/04 04:12:23;;;;;;;44.58;24.40;;;;;;;-142.57;100.00;55874.78;5047277;28;20037;-80
2024/01/04 04:14:49;;;;;;;40.28;23.58;;;;;;;-142.57;100.00;55810.13;5047629;28;20098;-81
2024/01/04 04:17:20;;;;;;;47.95;24.95;;;;;;;-142.57;100.00;55846.50;5030578;28;20061;-83
2024/01/04 04:19:46;;;;;;;45.53;24.20;;;;;;;-142.57;100.00;55838.44;5046230;28;20398;-81
2024/01/04 04:22:12;;;;;;;51.47;23.65;;;;;;;-142.57;100.00;55822.25;5049041;28;20040;-81
2024/01/04 04:24:40;;;;;;;49.33;24.38;;;;;;;-142.57;100.00;55781.84;5049051;28;20507;-81
2024/01/04 04:27:05;;;;;;;43.00;23.80;;;;;;;-142.57;100.00;55818.22;5047222;28;20389;-81
2024/01/04 04:29:31;;;;;;;49.10;25.02;;;;;;;-142.57;100.00;55806.09;5048052;28;20036;-81
2024/01/04 04:31:57;;;;;;;44.17;24.42;;;;;;;-142.57;100.00;55791.94;5029215;28;20048;-80
2024/01/04 04:34:22;;;;;;;44.80;24.10;;;;;;;-142.57;100.00;55806.09;5045201;28;20033;-80
2024/01/04 04:36:48;;;;;;;42.17;24.08;;;;;;;-142.57;100.00;55777.81;5032742;28;20067;-80
2024/01/04 04:39:14;;;;;;;42.72;23.98;;;;;;;-142.57;100.00;55735.38;4982047;28;20056;-80
2024/01/04 04:41:41;;;;;;;49.88;23.58;;;;;;;-142.57;100.00;55733.34;4957016;28;20098;-80
2024/01/04 04:44:06;;;;;;;45.33;25.00;;;;;;;-142.57;100.00;55733.34;4954182;28;20047;-79
2024/01/04 04:46:32;;;;;;;46.78;24.30;;;;;;;-142.57;100.00;55745.47;4957825;28;20037;-80
2024/01/04 04:48:58;;;;;;;46.35;25.35;;;;;;;-142.57;100.00;55707.09;5004211;28;20040;-81
2024/01/04 04:51:25;;;;;;;48.80;26.30;;;;;;;-142.57;100.00;55697.00;5006847;28;21559;-80
2024/01/04 04:53:51;;;;;;;51.88;24.98;;;;;;;-142.57;100.00;55692.94;4954618;28;20025;-80
2024/01/04 04:56:17;;;;;;;49.88;26.00;;;;;;;-142.57;100.00;55705.06;5044338;28;20033;-80
2024/01/04 04:58:42;;;;;;;51.28;26.90;;;;;;;-142.57;100.00;55721.22;5031844;28;20497;-81
2024/01/04 05:01:08;;;;;;;53.55;26.90;;;;;;;-142.57;100.00;55713.16;4957157;28;20177;-80
2024/01/04 05:03:35;;;;;;;57.67;29.13;;;;;;;-142.57;100.00;55751.53;4938976;28;21768;-81
2024/01/04 05:06:00;;;;;;;50.92;27.90;;;;;;;-142.57;100.00;55721.22;4954634;28;20112;-81
2024/01/04 05:08:26;;;;;;;51.70;26.60;;;;;;;-142.57;100.00;55688.91;4954785;28;20033;-81
2024/01/04 05:10:52;;;;;;;50.58;26.40;;;;;;;-142.57;100.00;55741.44;5035735;28;20040;-80
2024/01/04 05:13:17;;;;;;;52.20;25.23;;;;;;;-142.57;100.00;55737.41;5049869;28;20029;-80
2024/01/04 05:15:43;;;;;;;49.85;26.15;;;;;;;-142.57;100.00;55759.63;4962113;28;20048;-82
2024/01/04 05:18:09;;;;;;;51.72;24.90;;;;;;;-142.57;100.00;55806.09;4955095;28;21533;-81
2024/01/04 05:20:35;;;;;;;45.40;25.08;;;;;;;-142.57;100.00;55779.84;4951394;28;20040;-82
2024/01/04 05:23:01;;;;;;;52.08;25.05;;;;;;;-142.57;100.00;55737.41;4958142;28;20547;-82
2024/01/04 05:25:26;;;;;;;44.83;24.75;;;;;;;-142.57;100.00;55745.47;5051430;28;20116;-80
2024/01/04 05:27:52;;;;;;;41.97;23.85;;;;;;;-142.57;100.00;55806.09;5047225;28;20029;-80
2024/01/04 05:30:17;;;;;;;50.97;24.98;;;;;;;-142.57;100.00;55789.94;5038143;28;20029;-82
2024/01/04 05:32:43;;;;;;;45.22;23.20;;;;;;;-142.57;100.00;55804.06;4976520;28;20044;-81
2024/01/04 05:35:09;;;;;;;46.53;23.65;;;;;;;-142.57;100.00;55826.31;5044156;28;20041;-81
2024/01/04 05:37:35;;;;;;;41.00;22.90;;;;;;;-142.57;100.00;55834.38;5015953;28;20405;-81
2024/01/04 05:40:03;;;;;;;43.45;22.70;;;;;;;-142.57;100.00;55804.06;5001411;28;20033;-81
2024/01/04 05:42:29;;;;;;;51.15;23.38;;;;;;;-142.57;100.00;55789.94;5031326;28;20086;-80
2024/01/04 05:44:54;;;;;;;41.35;22.23;;;;;;;-142.57;100.00;55755.59;5049246;28;20037;-80
2024/01/04 05:47:20;;;;;;;45.97;21.73;;;;;;;-142.57;100.00;55743.47;5027862;28;20040;-80
2024/01/04 05:49:45;;;;;;;38.92;21.25;;;;;;;-142.57;100.00;55749.53;5019929;28;20029;-81
2024/01/04 05:52:12;;;;;;;38.92;21.10;;;;;;;-142.57;100.00;55822.25;5015055;28;20029;-80
2024/01/04 05:54:38;;;;;;;38.40;21.27;;;;;;;-142.57;100.00;55798.00;4968567;28;20057;-80
2024/01/04 05:57:03;;;;;;;47.38;22.92;;;;;;;-142.57;100.00;55793.97;5023963;28;20181;-80
2024/01/04 05:59:29;;;;;;;39.97;21.48;;;;;;;-142.57;100.00;55793.97;5038411;28;20029;-79
2024/01/04 06:01:54;;;;;;;51.63;20.92;;;;;;;-142.57;100.00;55802.06;5014380;28;20033;-83
2024/01/04 06:04:20;;;;;;;42.00;21.40;;;;;;;-142.57;100.00;55793.97;5047533;28;20032;-80
2024/01/04 06:06:47;;;;;;;42.90;23.02;;;;;;;-142.57;100.00;55802.06;5031682;28;20497;-81
2024/01/04 06:09:12;;;;;;;46.35;21.73;;;;;;;-142.57;100.00;55810.13;5051729;28;20059;-81
2024/01/04 06:11:38;;;;;;;50.67;23.08;;;;;;;-142.57;100.00;55745.47;5052443;28;20033;-82
2024/01/04 06:14:07;;;;;;;44.92;22.23;;;;;;;-142.57;100.00;55751.53;5047717;28;20044;-83
2024/01/04 06:16:33;;;;;;;47.88;23.35;;;;;;;-142.57;100.00;55781.84;5051843;28;20375;-84
2024/01/04 06:18:58;;;;;;;43.55;22.30;;;;;;;-142.57;100.00;55789.94;5043745;28;20043;-84
2024/01/04 06:21:24;;;;;;;46.17;22.95;;;;;;;-142.57;100.00;55834.38;5051770;28;20039;-81
2024/01/04 06:23:51;;;;;;;51.33;22.98;;;;;;;-142.57;100.00;55830.34;5036656;28;20044;-81
2024/01/04 06:26:18;;;;;;;37.53;20.00;;;;;;;-142.57;100.00;55834.38;5051297;28;20087;-83
2024/01/04 06:28:43;;;;;;;39.70;16.65;;;;;;;-142.57;100.00;55854.59;5051438;28;20033;-83
2024/01/04 06:31:09;;;;;;;36.88;16.67;;;;;;;-142.57;100.00;55880.84;5052028;28;20354;-84
2024/01/04 06:33:35;;;;;;;38.97;16.95;;;;;;;-142.57;100.00;55862.69;5050208;28;20490;-82
2024/01/04 06:36:02;;;;;;;35.63;16.00;;;;;;;-142.57;100.00;55850.56;5050375;28;20033;-82
2024/01/04 06:38:28;;;;;;;43.45;17.13;;;;;;;-142.57;100.00;55886.91;5046909;28;20037;-85
2024/01/04 06:40:57;;;;;;;39.83;16.95;;;;;;;-142.57;100.00;55913.19;5055287;28;20044;-83
2024/01/04 06:43:23;;;;;;;37.58;18.95;;;;;;;-142.57;100.00;55899.03;5043549;28;20132;-85
2024/01/04 06:45:49;;;;;;;37.78;18.02;;;;;;;-142.57;100.00;55895.00;5050648;28;20601;-82
2024/01/04 06:48:14;;;;;;;39.78;19.67;;;;;;;-142.57;100.00;55852.56;5048489;28;20124;-80
2024/01/04 06:50:41;;;;;;;46.13;19.38;;;;;;;-142.57;100.00;55866.72;5051637;28;20119;-83
2024/01/04 06:53:07;;;;;;;41.90;18.55;;;;;;;-142.57;100.00;55870.75;5052535;28;20421;-80
2024/01/04 06:55:33;;;;;;;32.65;17.88;;;;;;;-142.57;100.00;55860.66;5032562;28;20059;-82
2024/01/04 06:57:58;;;;;;;39.13;18.98;;;;;;;-142.57;100.00;55854.59;5050622;28;20037;-83
2024/01/04 07:00:24;;;;;;;45.97;20.38;;;;;;;-142.57;100.00;55846.50;5050545;28;20064;-81
2024/01/04 07:02:49;;;;;;;44.03;21.13;;;;;;;-142.57;100.00;55826.31;5050179;28;20029;-84
2024/01/04 07:05:15;;;;;;;41.25;20.52;;;;;;;-142.57;100.00;55876.81;5051804;28;20029;-83
2024/01/04 07:07:40;;;;;;;48.75;19.30;;;;;;;-142.57;100.00;55933.41;5056966;28;20504;-83
2024/01/04 07:10:06;;;;;;;36.10;18.73;;;;;;;-142.57;100.00;55951.59;5048462;28;20036;-84
2024/01/04 07:12:32;;;;;;;33.05;18.67;;;;;;;-142.57;100.00;56000.06;5046844;28;20032;-82
2024/01/04 07:14:58;;;;;;;32.78;18.88;;;;;;;-142.57;100.00;55971.78;5043372;28;20032;-84
2024/01/04 07:17:23;;;;;;;47.78;20.75;;;;;;;-142.57;100.00;55975.84;5048704;28;20035;-81
2024/01/04 07:19:50;;;;;;;39.17;19.50;;;;;;;-142.57;100.00;56048.56;5051251;28;20147;-84
2024/01/04 07:22:16;;;;;;;34.00;18.33;;;;;;;-142.57;100.00;56070.81;5028297;28;20180;-85
2024/01/04 07:24:42;;;;;;;48.08;18.83;;;;;;;-142.57;100.00;56161.72;5052936;28;20063;-81
2024/01/04 07:27:08;;;;;;;45.70;17.23;;;;;;;-142.57;100.00;56206.19;5037971;28;20020;-82
2024/01/04 07:29:34;;;;;;;31.98;16.35;;;;;;;-142.57;100.00;56278.94;5051059;28;20067;-79
2024/01/04 07:31:59;;;;;;;34.65;16.50;;;;;;;-142.57;100.00;56331.47;5037541;28;20121;-79
2024/01/04 07:34:27;;;;;;;37.63;16.52;;;;;;;-142.57;100.00;56454.75;5050398;28;20161;-83
2024/01/04 07:36:53;;;;;;;36.70;15.68;;;;;;;-142.57;100.00;56489.13;5053666;28;20037;-81
2024/01/04 07:39:19;;;;;;;35.97;16.38;;;;;;;-142.57;100.00;56432.53;5055406;28;20032;-88
2024/01/04 07:41:44;;;;;;;31.50;16.77;;;;;;;-142.57;100.00;56444.66;5055095;28;20037;-85
2024/01/04 07:44:10;;;;;;;37.80;16.92;;;;;;;-142.57;100.00;56491.13;5043868;28;20100;-84
2024/01/04 07:46:36;;;;;;;32.30;16.75;;;;;;;-142.57;100.00;56555.81;5036014;28;20128;-83
2024/01/04 07:49:06;;;;;;;31.33;16.33;;;;;;;-142.57;100.00;56626.53;5053679;28;20039;-81
2024/01/04 07:51:32;;;;;;;32.47;15.60;;;;;;;-142.57;100.00;56689.19;5053213;28;20120;-82
2024/01/04 07:53:58;;;;;;;29.85;15.55;;;;;;;-142.57;100.00;56858.97;5033782;28;20107;-82
2024/01/04 07:56:23;;;;;;;33.35;16.90;;;;;;;-142.57;100.00;56826.63;5053928;28;20029;-81
2024/01/04 07:58:49;;;;;;;32.38;16.33;;;;;;;-142.57;100.00;56846.84;5054089;28;20032;-82
2024/01/04 08:01:15;;;;;;;32.50;16.52;;;;;;;-142.57;100.00;56654.84;5050194;28;20074;-81
2024/01/04 08:03:40;;;;;;;30.30;15.95;;;;;;;-142.57;100.00;56517.41;5049405;28;20099;-82
2024/01/04 08:06:09;;;;;;;32.35;16.90;;;;;;;-142.57;100.00;56404.22;5060345;28;20080;-82
2024/01/04 08:08:35;;;;;;;36.50;16.98;;;;;;;-142.57;100.00;56327.44;5052423;28;20029;-83
2024/01/04 08:11:01;;;;;;;32.70;17.00;;;;;;;-142.57;100.00;56351.69;5053063;28;20111;-81
2024/01/04 08:13:27;;;;;;;33.13;17.33;;;;;;;-142.57;100.00;56365.84;5051104;28;20070;-85
2024/01/04 08:15:52;;;;;;;40.58;17.30;;;;;;;-142.57;100.00;56270.84;5048551;28;20067;-81
2024/01/04 08:18:20;;;;;;;37.78;17.05;;;;;;;-142.57;100.00;56272.88;5056059;28;20039;-82
2024/01/04 08:20:45;;;;;;;33.55;16.88;;;;;;;-142.57;100.00;56287.03;5057822;28;20029;-81
2024/01/04 08:23:12;;;;;;;36.05;16.73;;;;;;;-142.57;100.00;56258.72;5057334;28;20410;-82
2024/01/04 08:25:38;;;;;;;38.67;17.17;;;;;;;-142.57;100.00;56183.97;5041701;28;20036;-85
2024/01/04 08:28:04;;;;;;;32.38;16.25;;;;;;;-142.57;100.00;56129.41;5057062;28;20122;-81
2024/01/04 08:30:29;;;;;;;38.58;17.60;;;;;;;-142.57;100.00;56095.06;5061325;28;20052;-83
2024/01/04 08:32:55;;;;;;;43.15;19.25;;;;;;;-142.57;100.00;56121.31;5066531;28;20036;-83
2024/01/04 08:35:21;;;;;;;37.97;19.13;;;;;;;-142.57;100.00;56109.19;5064553;28;20035;-84
2024/01/04 08:37:47;;;;;;;43.35;18.55;;;;;;;-142.57;100.00;56078.88;5034612;28;20040;-83
2024/01/04 08:40:13;;;;;;;40.15;19.60;;;;;;;-142.57;100.00;56048.56;5035859;28;20087;-86
2024/01/04 08:42:39;;;;;;;49.63;20.33;;;;;;;-142.57;100.00;56105.16;5048871;28;20099;-83
2024/01/04 08:45:06;;;;;;;42.97;21.42;;;;;;;-142.57;100.00;56068.78;5049004;28;20481;-88
2024/01/04 08:47:31;;;;;;;39.50;21.63;;;;;;;-142.57;100.00;56052.63;5060419;28;20436;-87
2024/01/04 08:50:00;;;;;;;34.45;20.25;;;;;;;-142.57;100.00;56097.06;5035081;28;20036;-85
2024/01/04 08:52:27;;;;;;;42.80;21.38;;;;;;;-142.57;100.00;56064.75;5056137;28;20029;-85
2024/01/04 08:54:52;;;;;;;41.13;20.88;;;;;;;-142.57;100.00;56028.38;5042116;28;20378;-84
2024/01/04 08:57:18;;;;;;;41.10;22.02;;;;;;;-142.57;100.00;56036.44;5062801;28;20040;-85
2024/01/04 08:59:43;;;;;;;41.53;22.25;;;;;;;-142.57;100.00;56034.44;5057548;28;20025;-87
2024/01/04 09:02:09;;;;;;;38.45;20.95;;;;;;;-142.57;100.00;56024.31;5065788;28;20031;-86
2024/01/04 09:04:34;;;;;;;44.80;21.02;;;;;;;-142.57;100.00;56000.06;5059377;28;20068;-86
2024/01/04 09:07:00;;;;;;;34.25;19.70;;;;;;;-142.57;100.00;56048.56;5055276;28;20028;-89
2024/01/04 09:09:26;;;;;;;33.17;20.15;;;;;;;-142.57;100.00;56040.50;5037064;28;20041;-87
2024/01/04 09:11:52;;;;;;;31.20;19.55;;;;;;;-142.57;100.00;56006.13;5038108;28;20112;-86
2024/01/04 09:14:17;;;;;;;38.58;20.92;;;;;;;-142.57;100.00;55957.66;5054578;28;20094;-86
2024/01/04 09:16:44;;;;;;;34.78;21.35;;;;;;;-142.57;100.00;55951.59;5053029;28;20120;-87
2024/01/04 09:19:14;;;;;;;35.72;20.52;;;;;;;-142.57;100.00;55987.94;5066011;28;20060;-84
2024/01/04 09:21:40;;;;;;;34.55;20.40;;;;;;;-142.57;100.00;56016.25;5062464;28;20036;-87
2024/01/04 09:24:06;;;;;;;35.08;19.92;;;;;;;-142.57;100.00;56044.53;5056557;28;20068;-87
2024/01/04 09:26:31;;;;;;;39.30;19.63;;;;;;;-142.57;100.00;56097.06;5043610;28;20056;-86
2024/01/04 09:28:57;;;;;;;35.25;19.17;;;;;;;-142.57;100.00;56042.50;5054192;28;20119;-83
2024/01/04 09:31:22;;;;;;;33.47;19.73;;;;;;;-142.57;100.00;56056.66;5053903;28;20086;-85
2024/01/04 09:33:48;;;;;;;36.03;20.85;;;;;;;-142.57;100.00;56028.38;5053578;28;20076;-85
2024/01/04 09:36:14;;;;;;;41.30;20.33;;;;;;;-142.57;100.00;56032.41;5053805;28;20033;-84
2024/01/04 09:38:39;;;;;;;34.00;19.40;;;;;;;-142.57;100.00;56068.78;5056745;28;20060;-84
2024/01/04 09:41:22;;;;;;;34.97;20.13;;;;;;;-142.57;100.00;56018.25;5053024;28;20528;-85
2024/01/04 09:43:54;;;;;;;37.22;20.38;;;;;;;-142.57;100.00;56016.25;5053148;28;20043;-85
2024/01/04 09:46:22;;;;;;;41.67;21.15;;;;;;;-142.57;100.00;56024.31;5053191;28;20029;-87
2024/01/04 09:49:00;;;;;;;30.92;19.70;;;;;;;-142.57;100.00;56056.66;5052613;28;20073;-87
2024/01/04 09:51:34;;;;;;;32.70;19.60;;;;;;;-142.57;100.00;56064.75;5052930;28;20033;-86
2024/01/04 09:54:07;;;;;;;37.45;19.38;;;;;;;-142.57;100.00;56036.44;5034835;28;20025;-87
2024/01/04 09:56:40;;;;;;;32.55;19.75;;;;;;;-142.57;100.00;56044.53;5053276;28;20041;-86
2024/01/04 09:59:07;;;;;;;33.88;19.67;;;;;;;-142.57;100.00;56068.78;5074417;22;20070;-83
2024/01/04 10:01:37;;;;;;;35.95;19.77;;;;;;;-142.57;100.00;56044.53;5092749;28;20099;-83
2024/01/04 10:04:04;;;;;;;34.80;19.02;;;;;;;-142.57;100.00;56125.38;5074985;28;20042;-87
2024/01/04 10:06:34;;;;;;;36.08;20.08;;;;;;;-142.57;100.00;56129.41;5077281;28;20093;-85
2024/01/04 10:09:19;;;;;;;34.78;20.90;;;;;;;-142.57;100.00;56153.66;5094650;28;20086;-87
2024/01/04 10:11:44;;;;;;;34.47;19.10;;;;;;;-142.57;100.00;56181.94;5092978;28;20455;-86
2024/01/04 10:14:11;;;;;;;35.42;19.33;;;;;;;-142.57;100.00;56196.09;5092749;28;20024;-81
2024/01/04 10:16:37;;;;;;;37.13;20.48;;;;;;;-142.57;100.00;56254.69;5092307;28;20036;-81
2024/01/04 10:19:03;;;;;;;32.45;18.80;;;;;;;-142.57;100.00;56278.94;5092917;28;20382;-85
2024/01/04 10:21:35;;;;;;;29.95;18.75;;;;;;;-142.57;100.00;56375.94;5092686;28;20028;-86
2024/01/04 10:24:02;;;;;;;32.50;19.83;;;;;;;-142.57;100.00;56375.94;5091489;28;20033;-81
2024/01/04 10:26:28;;;;;;;31.58;20.42;;;;;;;-142.57;100.00;56402.22;5093120;28;20036;-84
2024/01/04 10:28:59;;;;;;;32.00;20.63;;;;;;;-142.57;100.00;56408.28;5093232;28;20047;-86
2024/01/04 10:31:26;;;;;;;97.85;22.92;;;;;;;-142.57;100.00;56477.00;5094124;28;20188;-84
2024/01/04 10:33:55;;;;;;;57.80;20.27;;;;;;;-142.57;100.00;56549.75;5093500;28;20055;-81
2024/01/04 10:36:22;;;;;;;38.90;19.27;;;;;;;-142.57;100.00;56592.19;5092265;28;20043;-86
2024/01/04 10:38:47;;;;;;;136.45;23.45;;;;;;;-142.57;100.00;56584.09;5091821;28;20045;-85
2024/01/04 10:41:17;;;;;;;92.93;21.67;;;;;;;-142.57;100.00;56644.72;5092167;28;20032;-83
2024/01/04 10:43:43;;;;;;;57.95;20.42;;;;;;;-142.57;100.00;56646.75;5094800;28;20028;-81
2024/01/04 10:46:10;;;;;;;92.65;22.95;;;;;;;-142.57;100.00;56689.19;5092219;28;20032;-86
2024/01/04 10:48:36;;;;;;;65.00;22.70;;;;;;;-142.57;100.00;56679.09;5092355;28;20055;-81
2024/01/04 10:51:04;;;;;;;69.40;21.65;;;;;;;-142.57;100.00;56711.41;5092363;28;20549;-84